Time;durP1;ratioP1;P1;durP2;ratioP2;P2;SDS_P1;SDS_P2;PMS_P1;PMS_P2;Temp;Humidity;BMP_temperature;BMP_pressure;BME280_temperature;BME280_humidity;BME280_pressure;Samples;Min_cycle;Max_cycle;Signal;HPM_P1;HPM_P2
2022/07/17 00:01:58;;;;;;;3.42;2.30;;;;;;;18.45;61.38;99477.56;1756855;81;20938;-44
2022/07/17 00:04:25;;;;;;;3.90;2.45;;;;;;;18.36;61.16;99469.63;1756953;81;21563;-44
2022/07/17 00:06:53;;;;;;;5.72;2.45;;;;;;;18.30;61.52;99463.05;1756997;81;20996;-44
2022/07/17 00:09:20;;;;;;;4.92;2.55;;;;;;;18.28;61.75;99456.59;1756701;81;21139;-44
2022/07/17 00:11:47;;;;;;;5.37;2.67;;;;;;;18.29;61.80;99470.50;1756758;81;21034;-44
2022/07/17 00:14:14;;;;;;;4.95;2.40;;;;;;;18.25;62.07;99466.41;1756741;81;20973;-44
2022/07/17 00:16:41;;;;;;;3.83;2.35;;;;;;;18.22;62.23;99459.00;1756863;81;20965;-43
2022/07/17 00:19:08;;;;;;;4.35;2.50;;;;;;;18.17;62.15;99455.91;1756823;81;21085;-44
2022/07/17 00:21:36;;;;;;;4.83;2.50;;;;;;;18.10;62.18;99457.38;1756664;81;23120;-44
2022/07/17 00:24:06;;;;;;;4.40;2.17;;;;;;;17.99;62.50;99463.55;1756905;81;20949;-44
2022/07/17 00:26:33;;;;;;;3.77;2.22;;;;;;;17.89;62.95;99457.56;1751827;81;21625;-44
2022/07/17 00:29:02;;;;;;;4.25;2.65;;;;;;;17.80;63.20;99454.71;1756836;81;20993;-44
2022/07/17 00:31:30;;;;;;;4.62;2.52;;;;;;;17.73;63.56;99458.88;1757136;81;21064;-44
2022/07/17 00:33:57;;;;;;;8.80;2.50;;;;;;;17.68;63.90;99464.79;1756909;81;21898;-44
2022/07/17 00:36:24;;;;;;;3.92;2.58;;;;;;;17.62;64.11;99468.39;1756728;81;20964;-44
2022/07/17 00:38:51;;;;;;;7.17;2.62;;;;;;;17.58;64.39;99459.36;1756705;81;20933;-43
2022/07/17 00:41:18;;;;;;;3.90;2.50;;;;;;;17.52;64.74;99467.25;1756697;81;21559;-44
2022/07/17 00:43:45;;;;;;;3.52;2.52;;;;;;;17.53;65.07;99468.79;1756712;81;21076;-44
2022/07/17 00:46:13;;;;;;;6.33;2.50;;;;;;;17.54;65.37;99466.83;1756697;81;21237;-44
2022/07/17 00:48:40;;;;;;;4.22;2.35;;;;;;;17.53;65.44;99464.67;1756732;81;21001;-44
2022/07/17 00:51:09;;;;;;;5.58;2.83;;;;;;;17.56;65.66;99460.37;1756736;81;21076;-44
2022/07/17 00:53:36;;;;;;;5.90;2.47;;;;;;;17.59;65.76;99452.13;1757056;81;21061;-44
2022/07/17 00:56:05;;;;;;;3.60;2.35;;;;;;;17.61;65.94;99453.89;1756750;81;21476;-44
2022/07/17 00:58:35;;;;;;;5.08;2.25;;;;;;;17.64;66.08;99456.41;1751823;81;21704;-44
2022/07/17 01:01:06;;;;;;;4.62;2.55;;;;;;;17.65;66.27;99453.27;1757138;81;20969;-44
2022/07/17 01:03:33;;;;;;;3.98;2.22;;;;;;;17.65;66.36;99457.38;1756689;81;20965;-44
2022/07/17 01:06:01;;;;;;;4.08;2.52;;;;;;;17.64;66.58;99458.56;1720763;83;21016;-44
2022/07/17 01:08:28;;;;;;;4.75;2.40;;;;;;;17.61;66.84;99453.89;1720675;83;21052;-44
2022/07/17 01:10:56;;;;;;;4.70;2.50;;;;;;;17.63;67.10;99458.36;1720790;83;21239;-44
2022/07/17 01:13:23;;;;;;;5.87;2.33;;;;;;;17.60;67.22;99452.33;1720646;83;21076;-44
2022/07/17 01:15:51;;;;;;;3.33;2.50;;;;;;;17.60;67.39;99437.84;1720789;83;20935;-44
2022/07/17 01:18:18;;;;;;;5.65;2.40;;;;;;;17.61;67.54;99436.08;1720677;83;20972;-44
2022/07/17 01:20:47;;;;;;;4.85;2.85;;;;;;;17.58;67.59;99443.69;1720804;83;21012;-44
2022/07/17 01:23:16;;;;;;;6.60;2.72;;;;;;;17.56;67.85;99454.30;1720568;83;21220;-43
2022/07/17 01:25:44;;;;;;;3.58;2.52;;;;;;;17.53;67.93;99455.67;1720653;83;21528;-43
2022/07/17 01:28:12;;;;;;;4.87;2.30;;;;;;;17.51;68.24;99457.47;1720618;83;21541;-44
2022/07/17 01:30:50;;;;;;;4.37;2.40;;;;;;;17.51;68.34;99445.72;1720664;83;21008;-44
2022/07/17 01:33:18;;;;;;;5.37;2.47;;;;;;;17.52;68.40;99450.03;1720674;83;21533;-44
2022/07/17 01:35:46;;;;;;;3.45;2.58;;;;;;;17.49;68.51;99452.97;1720980;83;21868;-44
2022/07/17 01:38:13;;;;;;;4.87;2.60;;;;;;;17.47;68.60;99441.64;1720671;83;21582;-43
2022/07/17 01:40:40;;;;;;;4.28;2.55;;;;;;;17.47;68.57;99443.02;1720771;83;20941;-43
2022/07/17 01:43:07;;;;;;;4.58;2.77;;;;;;;17.45;68.61;99449.48;1720677;83;20972;-44
2022/07/17 01:45:35;;;;;;;5.42;2.90;;;;;;;17.44;68.73;99443.02;1720492;83;21047;-43
2022/07/17 01:48:03;;;;;;;3.83;2.70;;;;;;;17.42;68.74;99437.96;1720681;83;21218;-44
2022/07/17 01:50:30;;;;;;;4.53;2.83;;;;;;;17.37;68.84;99437.02;1717999;83;21570;-44
2022/07/17 01:52:57;;;;;;;5.60;2.67;;;;;;;17.34;69.01;99439.95;1715171;83;20980;-44
2022/07/17 01:55:24;;;;;;;5.20;2.72;;;;;;;17.34;69.12;99440.55;1715270;83;21083;-44
2022/07/17 01:57:51;;;;;;;7.97;3.25;;;;;;;17.32;69.16;99446.45;1715364;83;21009;-44
2022/07/17 02:00:18;;;;;;;6.17;3.27;;;;;;;17.33;69.25;99443.13;1715161;83;23181;-44
2022/07/17 02:02:45;;;;;;;6.60;3.30;;;;;;;17.31;69.26;99438.63;1715340;83;21012;-44
2022/07/17 02:05:13;;;;;;;8.58;3.90;;;;;;;17.29;69.13;99440.38;1715315;83;21758;-44
2022/07/17 02:07:40;;;;;;;9.73;4.90;;;;;;;17.24;69.20;99437.28;1715244;83;20976;-44
2022/07/17 02:10:09;;;;;;;12.95;7.25;;;;;;;17.22;69.31;99437.71;1715270;83;21084;-44
2022/07/17 02:12:36;;;;;;;18.73;8.70;;;;;;;17.21;69.43;99437.52;1715505;83;21188;-44
2022/07/17 02:15:07;;;;;;;22.73;10.25;;;;;;;17.19;69.50;99437.71;1715047;83;21629;-44
2022/07/17 02:17:36;;;;;;;20.05;9.60;;;;;;;17.16;69.58;99435.20;1751356;81;21016;-44
2022/07/17 02:20:06;;;;;;;20.95;11.10;;;;;;;17.05;69.78;99424.89;1751356;82;21025;-44
2022/07/17 02:22:34;;;;;;;24.47;12.82;;;;;;;17.03;69.92;99423.75;1751667;82;27158;-44
2022/07/17 02:25:01;;;;;;;31.82;15.72;;;;;;;17.02;69.90;99427.66;1751276;82;21227;-44
2022/07/17 02:27:32;;;;;;;32.53;17.20;;;;;;;17.01;69.96;99442.53;1751278;82;20965;-44
2022/07/17 02:30:02;;;;;;;37.67;18.35;;;;;;;16.95;70.02;99442.95;1751601;82;21044;-44
2022/07/17 02:32:29;;;;;;;36.25;18.52;;;;;;;16.89;70.22;99443.17;1733056;82;21033;-44
2022/07/17 02:34:57;;;;;;;32.55;17.82;;;;;;;16.80;70.36;99440.67;1751406;82;20970;-44
2022/07/17 02:37:24;;;;;;;36.42;17.35;;;;;;;16.72;70.63;99434.47;1751236;82;21231;-44
2022/07/17 02:39:54;;;;;;;31.15;16.90;;;;;;;16.68;70.86;99443.29;1751401;82;20973;-44
2022/07/17 02:42:24;;;;;;;32.63;16.77;;;;;;;16.65;71.09;99437.84;1751405;82;21005;-44
2022/07/17 02:44:51;;;;;;;29.23;15.75;;;;;;;16.60;71.18;99435.52;1751531;82;20985;-44
2022/07/17 02:47:26;;;;;;;28.83;14.75;;;;;;;16.59;71.39;99434.73;1751298;82;21076;-44
2022/07/17 02:49:54;;;;;;;25.27;13.88;;;;;;;16.55;71.47;99433.16;1750489;82;21260;-44
2022/07/17 02:52:21;;;;;;;29.82;15.23;;;;;;;16.50;71.60;99427.51;1743421;82;21017;-44
2022/07/17 02:54:48;;;;;;;27.98;14.50;;;;;;;16.44;71.73;99431.83;1743376;82;20986;-44
2022/07/17 02:57:16;;;;;;;25.02;12.70;;;;;;;16.43;71.88;99426.16;1743345;82;21535;-44
2022/07/17 02:59:43;;;;;;;20.17;10.18;;;;;;;16.39;71.90;99432.23;1743395;82;21014;-44
2022/07/17 03:02:10;;;;;;;17.00;10.00;;;;;;;16.32;72.07;99433.61;1743490;82;21136;-43
2022/07/17 03:04:38;;;;;;;16.20;8.88;;;;;;;16.29;72.31;99435.78;1743318;82;20993;-44
2022/07/17 03:07:05;;;;;;;13.88;7.45;;;;;;;16.24;72.42;99436.18;1743091;81;21013;-44
2022/07/17 03:09:32;;;;;;;13.43;7.58;;;;;;;16.19;72.63;99426.43;1743356;81;21527;-44
2022/07/17 03:11:59;;;;;;;11.73;6.87;;;;;;;16.18;72.79;99427.59;1743541;82;21060;-44
2022/07/17 03:14:26;;;;;;;12.07;6.33;;;;;;;16.15;72.97;99423.52;1743299;82;21235;-44
2022/07/17 03:16:54;;;;;;;14.93;5.97;;;;;;;16.17;73.12;99421.17;1743293;82;20962;-44
2022/07/17 03:19:21;;;;;;;10.23;5.67;;;;;;;16.20;73.25;99426.62;1743329;82;20934;-43
2022/07/17 03:21:48;;;;;;;12.13;5.83;;;;;;;16.28;73.35;99426.00;1743470;81;20965;-43
2022/07/17 03:24:16;;;;;;;8.08;4.97;;;;;;;16.37;73.33;99420.89;1743212;82;20989;-44
2022/07/17 03:26:44;;;;;;;9.85;5.42;;;;;;;16.49;73.24;99412.26;1743218;82;23177;-43
2022/07/17 03:29:11;;;;;;;10.30;5.35;;;;;;;16.60;73.09;99415.77;1743279;82;20977;-44
2022/07/17 03:31:38;;;;;;;10.48;5.50;;;;;;;16.71;72.87;99415.11;1743466;81;20965;-44
2022/07/17 03:34:05;;;;;;;8.58;5.12;;;;;;;16.80;72.53;99416.81;1743263;82;21694;-43
2022/07/17 03:36:32;;;;;;;8.65;5.47;;;;;;;16.85;72.35;99419.14;1743611;81;21482;-44
2022/07/17 03:39:00;;;;;;;9.65;4.87;;;;;;;16.83;72.17;99422.88;1743568;82;21235;-44
2022/07/17 03:41:27;;;;;;;9.53;4.78;;;;;;;16.76;72.44;99428.97;1743504;82;20934;-44
2022/07/17 03:43:54;;;;;;;6.85;4.90;;;;;;;16.71;72.52;99420.58;1743513;82;21037;-44
2022/07/17 03:46:22;;;;;;;6.85;4.95;;;;;;;16.68;72.70;99420.61;1743520;81;21524;-44
2022/07/17 03:48:49;;;;;;;9.90;4.62;;;;;;;16.69;72.63;99427.06;1743536;82;20982;-44
2022/07/17 03:51:17;;;;;;;7.58;4.37;;;;;;;16.68;72.75;99428.82;1743429;82;21276;-43
2022/07/17 03:53:44;;;;;;;7.60;4.97;;;;;;;16.69;72.97;99431.16;1743287;82;22216;-44
2022/07/17 03:56:11;;;;;;;10.38;5.33;;;;;;;16.70;73.06;99436.05;1743568;81;21241;-44
2022/07/17 03:58:38;;;;;;;8.70;4.87;;;;;;;16.70;73.14;99438.80;1743339;82;21061;-44
2022/07/17 04:01:05;;;;;;;6.92;4.92;;;;;;;16.69;73.36;99457.17;1743717;82;21511;-44
2022/07/17 04:03:32;;;;;;;7.70;4.30;;;;;;;16.68;73.39;99466.56;1743572;82;21231;-44
2022/07/17 04:05:59;;;;;;;7.55;3.60;;;;;;;16.64;73.30;99456.22;1743540;82;21001;-44
2022/07/17 04:08:26;;;;;;;4.47;3.60;;;;;;;16.59;72.75;99457.21;1743527;81;20986;-43
2022/07/17 04:10:53;;;;;;;5.20;2.90;;;;;;;16.53;72.63;99458.96;1743457;81;21076;-44
2022/07/17 04:13:20;;;;;;;3.10;2.72;;;;;;;16.50;71.57;99459.77;1743570;82;21049;-44
2022/07/17 04:15:55;;;;;;;3.22;2.67;;;;;;;16.51;70.80;99453.09;1737519;82;21205;-43
2022/07/17 04:18:27;;;;;;;4.70;2.85;;;;;;;16.53;70.67;99448.02;1734904;82;21557;-44
2022/07/17 04:20:57;;;;;;;6.00;2.67;;;;;;;16.60;70.23;99444.51;1735119;82;21036;-44
2022/07/17 04:23:24;;;;;;;4.03;2.40;;;;;;;16.68;70.18;99442.51;1734859;82;21012;-44
2022/07/17 04:25:51;;;;;;;4.05;2.90;;;;;;;16.77;69.84;99445.00;1735104;82;20998;-43
2022/07/17 04:28:18;;;;;;;5.17;2.67;;;;;;;16.87;69.40;99442.02;1735091;82;21793;-43
2022/07/17 04:30:45;;;;;;;4.12;2.58;;;;;;;16.94;69.08;99437.27;1734829;82;21512;-43
2022/07/17 04:33:12;;;;;;;5.72;2.52;;;;;;;16.99;68.94;99438.84;1735097;82;21020;-44
2022/07/17 04:35:39;;;;;;;4.08;2.72;;;;;;;17.03;69.05;99443.70;1734999;82;21017;-44
2022/07/17 04:38:07;;;;;;;7.10;2.90;;;;;;;17.07;67.87;99449.16;1735095;82;20994;-44
2022/07/17 04:40:37;;;;;;;6.92;3.02;;;;;;;17.08;67.00;99458.34;1735576;82;21179;-44
2022/07/17 04:43:04;;;;;;;4.90;3.10;;;;;;;17.07;67.54;99460.11;1734916;82;21555;-44
2022/07/17 04:45:31;;;;;;;4.72;3.00;;;;;;;17.05;67.16;99455.61;1734943;82;21033;-44
2022/07/17 04:47:58;;;;;;;4.85;2.92;;;;;;;17.04;67.04;99462.28;1735009;82;21037;-44
2022/07/17 04:50:25;;;;;;;4.83;2.70;;;;;;;17.03;66.82;99468.35;1735404;81;21001;-44
2022/07/17 04:52:53;;;;;;;7.90;3.12;;;;;;;17.03;66.20;99466.98;1743104;82;21123;-44
2022/07/17 04:55:20;;;;;;;4.75;2.70;;;;;;;17.03;66.00;99462.09;1742917;82;21521;-44
2022/07/17 04:57:47;;;;;;;7.83;2.75;;;;;;;17.06;66.31;99453.84;1743547;82;20969;-44
2022/07/17 05:00:15;;;;;;;3.62;2.20;;;;;;;17.10;65.02;99457.34;1743372;82;21437;-44
2022/07/17 05:02:44;;;;;;;4.05;2.35;;;;;;;17.13;63.39;99463.41;1743269;82;27564;-44
2022/07/17 05:05:11;;;;;;;3.90;2.60;;;;;;;17.10;62.62;99470.25;1743312;82;21504;-43
2022/07/17 05:07:38;;;;;;;3.72;2.45;;;;;;;17.03;61.96;99477.16;1742969;82;21014;-43
2022/07/17 05:10:06;;;;;;;4.70;2.60;;;;;;;16.95;62.17;99481.88;1743130;82;20918;-43
2022/07/17 05:12:35;;;;;;;3.92;2.10;;;;;;;16.87;62.09;99478.41;1743152;82;21516;-43
2022/07/17 05:15:04;;;;;;;3.47;2.20;;;;;;;16.80;61.38;99485.27;1743104;82;21552;-43
2022/07/17 05:17:31;;;;;;;3.67;2.25;;;;;;;16.74;61.53;99481.41;1743033;82;21214;-43
2022/07/17 05:19:58;;;;;;;5.47;2.20;;;;;;;16.71;61.18;99475.92;1743167;82;20953;-43
2022/07/17 05:22:25;;;;;;;5.42;1.87;;;;;;;16.67;60.93;99471.84;1737846;82;21017;-44
2022/07/17 05:24:52;;;;;;;2.98;2.05;;;;;;;16.67;61.43;99478.68;1738179;82;20997;-43
2022/07/17 05:27:21;;;;;;;4.12;2.17;;;;;;;16.70;60.96;99481.98;1743077;82;21005;-43
2022/07/17 05:29:48;;;;;;;3.37;2.10;;;;;;;16.71;60.15;99482.17;1743082;82;21269;-43
2022/07/17 05:32:15;;;;;;;3.08;1.62;;;;;;;16.73;59.81;99472.20;1743096;82;21566;-43
2022/07/17 05:34:42;;;;;;;3.65;1.75;;;;;;;16.76;59.82;99480.40;1743093;82;21088;-43
2022/07/17 05:37:09;;;;;;;2.12;1.50;;;;;;;16.76;59.03;99488.61;1743360;82;21370;-43
2022/07/17 05:39:39;;;;;;;3.83;1.50;;;;;;;16.43;58.20;99454.88;1743084;82;21045;-44
2022/07/17 05:42:06;;;;;;;3.33;1.80;;;;;;;16.64;58.65;99503.34;1743008;82;21092;-43
2022/07/17 05:44:33;;;;;;;2.95;1.90;;;;;;;16.58;58.44;99502.96;1742960;82;21045;-43
2022/07/17 05:47:00;;;;;;;4.20;1.80;;;;;;;16.53;58.42;99509.59;1743228;82;21005;-43
2022/07/17 05:49:27;;;;;;;2.77;1.80;;;;;;;16.47;59.02;99504.91;1743153;82;21025;-43
2022/07/17 05:51:55;;;;;;;3.33;1.67;;;;;;;16.37;58.96;99514.70;1738655;82;21005;-43
2022/07/17 05:54:22;;;;;;;3.45;1.50;;;;;;;16.33;59.26;99513.15;1734860;82;21241;-43
2022/07/17 05:56:49;;;;;;;3.40;1.95;;;;;;;16.32;59.75;99519.79;1734890;82;21046;-43
2022/07/17 05:59:16;;;;;;;4.75;2.00;;;;;;;16.29;59.54;99516.48;1734996;82;21001;-43
2022/07/17 06:01:44;;;;;;;2.42;1.50;;;;;;;16.24;59.91;99522.35;1734768;82;21595;-43
2022/07/17 06:04:12;;;;;;;6.67;1.87;;;;;;;16.20;59.99;99524.31;1735019;82;21096;-43
2022/07/17 06:06:40;;;;;;;3.33;2.10;;;;;;;16.16;60.22;99524.91;1735014;82;21979;-43
2022/07/17 06:09:07;;;;;;;3.87;1.67;;;;;;;16.14;60.51;99532.72;1734991;82;20960;-44
2022/07/17 06:11:34;;;;;;;3.12;1.75;;;;;;;16.13;60.82;99527.05;1734912;82;21004;-43
2022/07/17 06:14:01;;;;;;;2.62;1.70;;;;;;;16.08;61.07;99527.64;1734960;82;21046;-43
2022/07/17 06:16:28;;;;;;;3.52;1.35;;;;;;;16.04;61.01;99521.98;1734839;82;21001;-43
2022/07/17 06:18:55;;;;;;;3.33;1.42;;;;;;;15.97;61.45;99517.90;1735120;82;21954;-43
2022/07/17 06:21:22;;;;;;;2.83;1.70;;;;;;;15.92;62.59;99530.59;1734891;82;20938;-43
2022/07/17 06:23:49;;;;;;;2.95;1.50;;;;;;;15.87;62.59;99529.61;1734947;82;21021;-43
2022/07/17 06:26:16;;;;;;;2.85;1.65;;;;;;;15.78;62.68;99538.80;1734952;82;21097;-43
2022/07/17 06:28:43;;;;;;;2.67;1.70;;;;;;;15.69;62.97;99541.89;1734861;82;21073;-43
2022/07/17 06:31:10;;;;;;;3.67;1.80;;;;;;;15.62;63.37;99540.53;1735060;82;21503;-43
2022/07/17 06:33:38;;;;;;;5.35;1.50;;;;;;;15.58;63.44;99544.63;1734971;82;21075;-43
2022/07/17 06:36:05;;;;;;;3.77;1.40;;;;;;;15.56;63.36;99540.12;1735004;82;20942;-43
2022/07/17 06:38:33;;;;;;;2.90;1.35;;;;;;;15.55;63.53;99544.02;1734992;82;21563;-43
2022/07/17 06:41:01;;;;;;;2.85;1.45;;;;;;;15.54;63.51;99547.91;1734943;82;21552;-43
2022/07/17 06:43:28;;;;;;;4.55;1.52;;;;;;;15.52;63.75;99556.31;1735007;82;22041;-43
2022/07/17 06:45:55;;;;;;;3.75;1.50;;;;;;;15.53;64.00;99564.72;1735123;82;21550;-43
2022/07/17 06:48:22;;;;;;;2.70;1.65;;;;;;;15.52;64.25;99570.77;1735039;82;21500;-43
2022/07/17 06:50:50;;;;;;;2.10;1.30;;;;;;;15.56;64.58;99572.13;1734966;82;20966;-43
2022/07/17 06:53:17;;;;;;;2.40;1.25;;;;;;;15.61;64.43;99562.97;1734864;81;21053;-43
2022/07/17 06:55:44;;;;;;;2.95;1.50;;;;;;;15.64;63.76;99577.22;1734947;82;21249;-43
2022/07/17 06:58:11;;;;;;;3.05;1.70;;;;;;;15.65;63.50;99568.44;1735039;82;20958;-43
2022/07/17 07:00:39;;;;;;;3.98;1.55;;;;;;;15.69;63.63;99569.80;1734799;82;21563;-43
2022/07/17 07:03:06;;;;;;;2.62;1.57;;;;;;;15.75;63.96;99571.77;1735228;82;21073;-43
2022/07/17 07:05:34;;;;;;;2.62;1.32;;;;;;;15.82;63.73;99573.16;1734984;82;21022;-43
2022/07/17 07:08:01;;;;;;;2.10;1.40;;;;;;;15.89;63.19;99575.89;1730430;82;21899;-43
2022/07/17 07:10:28;;;;;;;2.90;1.25;;;;;;;15.93;63.36;99567.09;1734825;82;21004;-43
2022/07/17 07:12:56;;;;;;;4.90;1.50;;;;;;;15.97;63.15;99569.85;1735190;82;20969;-43
2022/07/17 07:15:24;;;;;;;4.10;2.00;;;;;;;15.96;63.68;99566.92;1735337;82;21480;-43
2022/07/17 07:17:52;;;;;;;1.82;1.30;;;;;;;15.97;65.17;99554.23;1735218;82;21037;-43
2022/07/17 07:20:20;;;;;;;2.20;1.20;;;;;;;15.94;65.54;99567.30;1730350;82;21216;-43
2022/07/17 07:22:47;;;;;;;2.02;1.40;;;;;;;15.89;66.46;99570.42;1735210;82;21657;-43
2022/07/17 07:25:14;;;;;;;2.42;1.60;;;;;;;15.86;67.24;99566.32;1735228;82;21442;-43
2022/07/17 07:27:43;;;;;;;2.33;1.67;;;;;;;15.89;67.42;99558.70;1735111;82;20982;-43
2022/07/17 07:30:11;;;;;;;2.60;1.37;;;;;;;15.96;67.89;99558.71;1735425;82;21494;-43
2022/07/17 07:32:39;;;;;;;2.92;1.87;;;;;;;16.01;68.45;99562.42;1735274;82;21039;-43
2022/07/17 07:35:08;;;;;;;7.53;1.60;;;;;;;16.08;68.57;99562.41;1735023;82;21535;-43
2022/07/17 07:37:35;;;;;;;2.50;1.47;;;;;;;16.18;68.75;99568.47;1735660;82;21470;-43
2022/07/17 07:40:06;;;;;;;1.85;1.10;;;;;;;16.28;67.05;99566.31;1735266;82;20994;-43
2022/07/17 07:42:33;;;;;;;1.55;1.10;;;;;;;16.31;65.78;99562.03;1735459;82;21089;-43
2022/07/17 07:45:00;;;;;;;3.72;1.65;;;;;;;16.36;65.50;99568.47;1735189;82;21735;-43
2022/07/17 07:47:27;;;;;;;1.92;1.50;;;;;;;16.43;64.94;99562.97;1735040;82;21038;-43
2022/07/17 07:49:54;;;;;;;2.12;1.20;;;;;;;16.54;65.48;99567.84;1735185;82;21025;-43
2022/07/17 07:52:21;;;;;;;2.10;1.05;;;;;;;16.69;65.15;99562.57;1740966;82;20942;-43
2022/07/17 07:54:48;;;;;;;1.85;1.17;;;;;;;16.79;62.71;99569.19;1749292;82;21078;-43
2022/07/17 07:57:15;;;;;;;2.70;1.17;;;;;;;16.77;61.45;99564.10;1749144;82;21205;-43
2022/07/17 07:59:42;;;;;;;1.62;1.12;;;;;;;16.76;61.48;99569.38;1749073;82;21485;-43
2022/07/17 08:02:11;;;;;;;2.05;1.25;;;;;;;16.82;61.54;99563.70;1749002;82;20986;-43
2022/07/17 08:04:38;;;;;;;1.10;0.90;;;;;;;16.92;61.25;99562.89;1748983;82;21076;-43
2022/07/17 08:07:06;;;;;;;1.40;0.90;;;;;;;17.07;61.56;99561.45;1749114;82;21009;-43
2022/07/17 08:09:33;;;;;;;2.10;1.10;;;;;;;17.21;58.46;99562.77;1749340;82;21453;-43
2022/07/17 08:12:02;;;;;;;1.98;1.10;;;;;;;17.30;56.72;99559.00;1749009;82;21519;-43
2022/07/17 08:14:28;;;;;;;1.27;1.05;;;;;;;17.39;57.13;99556.59;1749023;82;20961;-43
2022/07/17 08:16:55;;;;;;;2.15;0.90;;;;;;;17.54;56.32;99565.52;1749059;82;21037;-43
2022/07/17 08:19:23;;;;;;;4.15;1.12;;;;;;;17.71;56.18;99564.67;1749115;82;21048;-43
2022/07/17 08:21:50;;;;;;;1.57;0.98;;;;;;;17.90;55.65;99564.14;1748868;82;23200;-43
2022/07/17 08:24:17;;;;;;;3.58;1.40;;;;;;;18.09;55.79;99559.48;1749086;82;21538;-43
2022/07/17 08:26:44;;;;;;;1.00;0.90;;;;;;;18.30;54.86;99554.38;1749087;82;21005;-43
2022/07/17 08:29:11;;;;;;;2.30;0.80;;;;;;;18.48;50.87;99555.59;1749013;82;21025;-43
2022/07/17 08:31:38;;;;;;;1.90;0.88;;;;;;;18.58;51.85;99553.37;1748967;82;21029;-43
2022/07/17 08:34:05;;;;;;;2.17;1.30;;;;;;;18.70;50.28;99560.29;1749067;82;21131;-43
2022/07/17 08:36:33;;;;;;;2.15;0.90;;;;;;;18.79;49.64;99560.58;1748891;82;21511;-43
2022/07/17 08:39:01;;;;;;;2.02;1.17;;;;;;;18.87;49.89;99560.70;1749061;82;21520;-43
2022/07/17 08:41:29;;;;;;;1.35;0.85;;;;;;;18.93;50.59;99559.03;1749091;82;21555;-43
2022/07/17 08:43:57;;;;;;;1.07;0.98;;;;;;;19.08;50.87;99557.68;1749416;82;20978;-43
2022/07/17 08:46:27;;;;;;;1.57;0.93;;;;;;;19.28;51.00;99557.23;1748935;82;22234;-43
2022/07/17 08:49:02;;;;;;;1.72;1.20;;;;;;;19.52;49.76;99556.73;1749213;82;20989;-43
2022/07/17 08:51:29;;;;;;;2.52;1.52;;;;;;;19.69;47.52;99559.84;1748883;82;21012;-43
2022/07/17 08:53:56;;;;;;;6.25;1.67;;;;;;;19.77;48.40;99566.00;1735911;82;21088;-43
2022/07/17 08:56:24;;;;;;;1.67;1.25;;;;;;;19.84;48.54;99565.91;1735089;82;21013;-43
2022/07/17 08:58:51;;;;;;;2.70;1.55;;;;;;;19.91;47.60;99557.52;1735197;82;21176;-43
2022/07/17 09:01:19;;;;;;;2.95;1.20;;;;;;;19.90;47.67;99562.84;1734915;82;21525;-43
2022/07/17 09:04:05;;;;;;;1.17;0.90;;;;;;;19.85;48.39;99561.94;1735204;82;20946;-43
2022/07/17 09:06:29;;;;;;;1.65;1.02;;;;;;;19.78;47.33;99566.19;1734922;81;21033;-43
2022/07/17 09:09:11;;;;;;;1.47;0.80;;;;;;;19.68;48.50;99565.16;1729667;82;21069;-43
2022/07/17 09:11:50;;;;;;;1.70;0.95;;;;;;;19.68;47.08;99563.00;1735237;82;21187;-43
2022/07/17 09:14:18;;;;;;;3.60;2.02;;;;;;;19.72;47.92;99562.34;1735208;81;20997;-43
2022/07/17 09:16:57;;;;;;;1.62;1.20;;;;;;;19.74;47.24;99552.49;1735410;82;21591;-43
2022/07/17 09:19:35;;;;;;;3.55;1.20;;;;;;;19.68;46.11;99557.49;1735085;82;20934;-43
2022/07/17 09:22:12;;;;;;;1.07;0.75;;;;;;;19.55;47.00;99554.55;1735100;82;21070;-43
2022/07/17 09:24:55;;;;;;;3.27;1.05;;;;;;;19.54;48.81;99551.61;1734935;82;21209;-43
2022/07/17 09:27:32;;;;;;;1.42;1.00;;;;;;;19.55;48.13;99553.77;1734865;82;21493;-43
2022/07/17 09:30:12;;;;;;;1.50;0.90;;;;;;;19.52;49.18;99556.14;1734926;82;21017;-43
2022/07/17 09:32:42;;;;;;;1.02;0.88;;;;;;;19.59;49.01;99550.36;1734939;82;20998;-43
2022/07/17 09:35:10;;;;;;;1.30;0.93;;;;;;;19.80;46.76;99543.17;1735272;82;21023;-43
2022/07/17 09:37:39;;;;;;;2.05;0.70;;;;;;;20.02;46.53;99544.37;1735290;82;21476;-43
2022/07/17 09:41:09;;;;;;;1.05;0.95;;;;;;;20.17;45.97;99542.17;1734962;82;20969;-43
2022/07/17 09:42:44;;;;;;;1.17;0.85;;;;;;;20.25;45.91;99539.46;1731611;82;20987;-43
2022/07/17 09:45:11;;;;;;;1.10;0.82;;;;;;;20.32;45.58;99531.13;1736363;82;21009;-43
2022/07/17 09:47:39;;;;;;;1.55;0.60;;;;;;;20.48;44.61;99540.84;1736991;82;21559;-43
2022/07/17 09:50:08;;;;;;;2.10;1.20;;;;;;;20.61;41.74;99527.23;1737242;82;21082;-43
2022/07/17 09:52:39;;;;;;;1.20;0.70;;;;;;;20.61;42.83;99527.23;1737578;82;20957;-43
2022/07/17 09:55:08;;;;;;;0.68;0.68;;;;;;;20.57;42.97;99535.58;1737197;82;21057;-43
2022/07/17 09:57:35;;;;;;;0.78;0.60;;;;;;;20.43;42.69;99530.93;1737086;82;21536;-43
2022/07/17 10:00:12;;;;;;;1.30;0.75;;;;;;;20.22;42.67;99534.20;1737275;82;21492;-43
2022/07/17 10:02:43;;;;;;;2.30;0.78;;;;;;;20.00;43.64;99536.34;1737191;82;21212;-43
2022/07/17 10:05:15;;;;;;;1.17;0.70;;;;;;;19.78;43.98;99531.80;1737431;82;20988;-43
2022/07/17 10:07:45;;;;;;;1.70;0.85;;;;;;;19.63;44.79;99538.11;1737121;82;21093;-43
2022/07/17 10:10:12;;;;;;;;;;;;;;;19.63;46.33;99529.08;1739718;82;21005;-43
2022/07/17 10:12:43;;;;;;;2.80;0.88;;;;;;;19.74;45.10;99541.48;1737578;82;20180;-43
2022/07/17 10:15:11;;;;;;;1.75;0.57;;;;;;;19.81;43.67;99528.98;1737093;82;21802;-43
2022/07/17 10:17:38;;;;;;;1.20;0.65;;;;;;;20.02;44.45;99537.50;1732275;82;21558;-44
2022/07/17 10:20:08;;;;;;;1.60;0.80;;;;;;;20.22;43.94;99533.43;1737239;82;21582;-43
2022/07/17 10:22:44;;;;;;;1.00;0.60;;;;;;;20.38;44.15;99532.20;1715416;82;21049;-43
2022/07/17 10:25:16;;;;;;;1.32;0.80;;;;;;;20.58;43.86;99531.60;1737096;82;21819;-43
2022/07/17 10:27:53;;;;;;;2.00;0.72;;;;;;;20.81;43.44;99530.19;1718089;82;21089;-43
2022/07/17 10:30:27;;;;;;;0.68;0.60;;;;;;;21.05;42.05;99522.61;1733166;82;21508;-43
2022/07/17 10:33:02;;;;;;;1.07;0.80;;;;;;;21.12;42.58;99530.72;1743782;82;21017;-43
2022/07/17 10:35:28;;;;;;;1.85;0.90;;;;;;;20.97;41.87;99528.08;1706109;83;21041;-43
2022/07/17 10:38:00;;;;;;;2.70;0.90;;;;;;;20.50;42.95;99506.00;1708058;84;21017;-43
2022/07/17 10:40:28;;;;;;;1.62;0.88;;;;;;;20.42;43.93;99548.65;1742582;81;22049;-43
2022/07/17 10:43:00;;;;;;;2.70;0.90;;;;;;;20.11;45.50;99557.00;1743653;82;20985;-43
2022/07/17 10:45:39;;;;;;;1.42;0.78;;;;;;;19.89;46.09;99558.55;1743337;82;20900;-43
2022/07/17 10:48:12;;;;;;;1.75;1.00;;;;;;;19.60;46.73;99547.80;1743448;81;21375;-42
2022/07/17 10:50:46;;;;;;;3.25;1.00;;;;;;;19.26;47.04;99548.63;1743411;81;21037;-43
2022/07/17 10:53:17;;;;;;;0.90;0.82;;;;;;;19.07;47.35;99562.39;1748614;81;21212;-43
2022/07/17 10:55:47;;;;;;;2.25;0.80;;;;;;;19.11;47.83;99558.25;1756624;81;20996;-43
2022/07/17 10:58:29;;;;;;;1.47;0.70;;;;;;;19.34;47.48;99548.71;1757119;81;21001;-43
2022/07/17 11:01:16;;;;;;;0.95;0.70;;;;;;;19.67;47.25;99558.68;1756702;81;20981;-42
2022/07/17 11:03:47;;;;;;;1.45;0.60;;;;;;;20.00;43.67;99556.39;1756633;81;21084;-43
2022/07/17 11:08:08;;;;;;;1.65;0.70;;;;;;;20.39;43.81;99543.37;1823010;76;22604;-43
2022/07/17 11:10:32;;;;;;;0.62;0.62;;;;;;;20.48;43.56;99538.70;1789120;79;20922;-43
2022/07/17 11:13:12;;;;;;;1.30;0.53;;;;;;;20.68;44.46;99538.89;1796647;79;21197;-43
2022/07/17 11:15:44;;;;;;;4.08;0.40;;;;;;;20.89;42.02;99548.72;1796766;79;21540;-43
2022/07/17 11:18:19;;;;;;;1.65;0.53;;;;;;;20.96;40.25;99544.43;1796198;79;20961;-43
2022/07/17 11:20:56;;;;;;;1.32;0.70;;;;;;;21.06;38.58;99551.70;1797047;79;20918;-43
2022/07/17 11:23:26;;;;;;;0.65;0.57;;;;;;;21.14;38.29;99549.63;1795580;79;20923;-43
2022/07/17 11:26:06;;;;;;;1.35;0.60;;;;;;;21.20;38.37;99547.30;1797030;79;21065;-43
2022/07/17 11:28:39;;;;;;;0.75;0.70;;;;;;;21.30;37.89;99540.63;1796597;79;21488;-43
2022/07/17 11:31:25;;;;;;;1.52;0.82;;;;;;;21.49;38.69;99538.43;1796568;79;20969;-43
2022/07/17 11:33:55;;;;;;;0.93;0.82;;;;;;;21.81;37.71;99538.45;1796803;79;21065;-43
2022/07/17 11:36:34;;;;;;;0.70;0.53;;;;;;;22.08;37.74;99536.22;1796937;79;21007;-43
2022/07/17 11:39:07;;;;;;;1.10;0.75;;;;;;;22.19;36.92;99537.34;1796688;79;21206;-43
2022/07/17 11:41:52;;;;;;;3.02;0.50;;;;;;;22.28;36.84;99535.34;1796800;79;21036;-43